sensor_id;sensor_type;location;lat;lon;timestamp;P1;durP1;ratioP1;P2;durP2;ratioP2
7795;SDS011;3942;51.518;6.912;2023-11-21T00:04:19;16.75;;;7.55;;
7795;SDS011;3942;51.518;6.912;2023-11-21T00:09:21;18.25;;;8.20;;
7795;SDS011;3942;51.518;6.912;2023-11-21T00:14:24;19.02;;;7.28;;
7795;SDS011;3942;51.518;6.912;2023-11-21T00:19:27;15.38;;;7.18;;
7795;SDS011;3942;51.518;6.912;2023-11-21T00:24:29;17.17;;;7.20;;
7795;SDS011;3942;51.518;6.912;2023-11-21T00:29:33;19.80;;;8.32;;
7795;SDS011;3942;51.518;6.912;2023-11-21T00:34:35;24.70;;;9.70;;
7795;SDS011;3942;51.518;6.912;2023-11-21T00:39:37;19.25;;;9.48;;
7795;SDS011;3942;51.518;6.912;2023-11-21T00:44:41;38.90;;;17.98;;
7795;SDS011;3942;51.518;6.912;2023-11-21T00:49:43;23.30;;;12.25;;
7795;SDS011;3942;51.518;6.912;2023-11-21T00:54:45;24.30;;;9.60;;
7795;SDS011;3942;51.518;6.912;2023-11-21T00:59:49;21.75;;;9.32;;
7795;SDS011;3942;51.518;6.912;2023-11-21T01:04:51;24.05;;;10.38;;
7795;SDS011;3942;51.518;6.912;2023-11-21T01:09:53;19.40;;;9.00;;
7795;SDS011;3942;51.518;6.912;2023-11-21T01:14:57;19.88;;;8.15;;
7795;SDS011;3942;51.518;6.912;2023-11-21T01:20:00;19.75;;;8.80;;
7795;SDS011;3942;51.518;6.912;2023-11-21T01:25:03;16.48;;;8.25;;
7795;SDS011;3942;51.518;6.912;2023-11-21T01:30:09;18.35;;;8.93;;
7795;SDS011;3942;51.518;6.912;2023-11-21T01:35:11;21.48;;;9.65;;
7795;SDS011;3942;51.518;6.912;2023-11-21T01:40:13;22.83;;;8.88;;
7795;SDS011;3942;51.518;6.912;2023-11-21T01:45:17;16.17;;;8.10;;
7795;SDS011;3942;51.518;6.912;2023-11-21T01:50:20;19.27;;;9.52;;
7795;SDS011;3942;51.518;6.912;2023-11-21T01:55:22;16.20;;;8.27;;
7795;SDS011;3942;51.518;6.912;2023-11-21T02:00:26;21.58;;;8.82;;
7795;SDS011;3942;51.518;6.912;2023-11-21T02:05:29;22.17;;;9.25;;
7795;SDS011;3942;51.518;6.912;2023-11-21T02:10:31;20.17;;;8.77;;
7795;SDS011;3942;51.518;6.912;2023-11-21T02:15:35;21.38;;;9.30;;
7795;SDS011;3942;51.518;6.912;2023-11-21T02:20:38;29.05;;;9.98;;
7795;SDS011;3942;51.518;6.912;2023-11-21T02:25:43;20.70;;;8.50;;
7795;SDS011;3942;51.518;6.912;2023-11-21T02:30:45;21.73;;;8.82;;
7795;SDS011;3942;51.518;6.912;2023-11-21T02:35:55;19.77;;;8.63;;
7795;SDS011;3942;51.518;6.912;2023-11-21T02:40:58;22.70;;;8.93;;
7795;SDS011;3942;51.518;6.912;2023-11-21T02:46:00;29.88;;;13.07;;
7795;SDS011;3942;51.518;6.912;2023-11-21T02:51:02;23.15;;;10.05;;
7795;SDS011;3942;51.518;6.912;2023-11-21T02:56:06;18.90;;;9.30;;
7795;SDS011;3942;51.518;6.912;2023-11-21T03:01:09;24.17;;;10.32;;
7795;SDS011;3942;51.518;6.912;2023-11-21T03:06:12;18.92;;;8.30;;
7795;SDS011;3942;51.518;6.912;2023-11-21T03:11:16;15.98;;;9.63;;
7795;SDS011;3942;51.518;6.912;2023-11-21T03:16:18;19.98;;;9.75;;
7795;SDS011;3942;51.518;6.912;2023-11-21T03:21:20;18.45;;;8.68;;
7795;SDS011;3942;51.518;6.912;2023-11-21T03:26:24;20.85;;;9.45;;
7795;SDS011;3942;51.518;6.912;2023-11-21T03:31:25;25.33;;;11.00;;
7795;SDS011;3942;51.518;6.912;2023-11-21T03:36:28;21.67;;;9.93;;
7795;SDS011;3942;51.518;6.912;2023-11-21T03:41:31;21.52;;;9.63;;
7795;SDS011;3942;51.518;6.912;2023-11-21T03:46:34;27.42;;;9.07;;
7795;SDS011;3942;51.518;6.912;2023-11-21T03:51:35;21.35;;;9.65;;
7795;SDS011;3942;51.518;6.912;2023-11-21T03:56:39;17.92;;;9.07;;
7795;SDS011;3942;51.518;6.912;2023-11-21T04:01:41;24.45;;;9.80;;
7795;SDS011;3942;51.518;6.912;2023-11-21T04:06:43;20.25;;;10.65;;
7795;SDS011;3942;51.518;6.912;2023-11-21T04:11:46;19.63;;;9.70;;
7795;SDS011;3942;51.518;6.912;2023-11-21T04:16:48;23.67;;;11.55;;
7795;SDS011;3942;51.518;6.912;2023-11-21T04:21:50;21.45;;;10.82;;
7795;SDS011;3942;51.518;6.912;2023-11-21T04:26:54;22.50;;;10.25;;
7795;SDS011;3942;51.518;6.912;2023-11-21T04:31:56;28.13;;;11.00;;
7795;SDS011;3942;51.518;6.912;2023-11-21T04:36:58;21.42;;;10.30;;
7795;SDS011;3942;51.518;6.912;2023-11-21T04:42:02;21.10;;;10.82;;
7795;SDS011;3942;51.518;6.912;2023-11-21T04:47:04;19.17;;;9.77;;
7795;SDS011;3942;51.518;6.912;2023-11-21T04:52:06;24.63;;;9.43;;
7795;SDS011;3942;51.518;6.912;2023-11-21T04:57:10;22.92;;;10.77;;
7795;SDS011;3942;51.518;6.912;2023-11-21T05:02:12;32.05;;;13.90;;
7795;SDS011;3942;51.518;6.912;2023-11-21T05:07:15;25.75;;;11.00;;
7795;SDS011;3942;51.518;6.912;2023-11-21T05:12:18;29.65;;;11.73;;
7795;SDS011;3942;51.518;6.912;2023-11-21T05:17:20;22.55;;;11.55;;
7795;SDS011;3942;51.518;6.912;2023-11-21T05:22:22;29.10;;;11.27;;
7795;SDS011;3942;51.518;6.912;2023-11-21T05:27:26;27.25;;;11.50;;
7795;SDS011;3942;51.518;6.912;2023-11-21T05:32:28;22.10;;;11.57;;
7795;SDS011;3942;51.518;6.912;2023-11-21T05:37:30;30.77;;;11.80;;
7795;SDS011;3942;51.518;6.912;2023-11-21T05:42:34;34.40;;;16.83;;
7795;SDS011;3942;51.518;6.912;2023-11-21T05:47:36;28.30;;;12.50;;
7795;SDS011;3942;51.518;6.912;2023-11-21T05:52:40;25.63;;;12.15;;
7795;SDS011;3942;51.518;6.912;2023-11-21T05:57:44;31.42;;;12.15;;
7795;SDS011;3942;51.518;6.912;2023-11-21T06:02:46;27.45;;;11.50;;
7795;SDS011;3942;51.518;6.912;2023-11-21T06:07:50;28.65;;;13.35;;
7795;SDS011;3942;51.518;6.912;2023-11-21T06:12:53;26.58;;;12.57;;
7795;SDS011;3942;51.518;6.912;2023-11-21T06:17:56;32.00;;;13.48;;
7795;SDS011;3942;51.518;6.912;2023-11-21T06:22:58;36.05;;;12.32;;
7795;SDS011;3942;51.518;6.912;2023-11-21T06:28:05;33.67;;;13.10;;
7795;SDS011;3942;51.518;6.912;2023-11-21T06:33:07;36.05;;;12.73;;
7795;SDS011;3942;51.518;6.912;2023-11-21T06:38:09;30.70;;;12.90;;
7795;SDS011;3942;51.518;6.912;2023-11-21T06:43:13;31.63;;;14.20;;
7795;SDS011;3942;51.518;6.912;2023-11-21T06:48:16;38.28;;;18.10;;
7795;SDS011;3942;51.518;6.912;2023-11-21T06:53:18;35.80;;;16.33;;
7795;SDS011;3942;51.518;6.912;2023-11-21T06:58:21;36.53;;;15.98;;
7795;SDS011;3942;51.518;6.912;2023-11-21T07:03:24;53.65;;;18.30;;
7795;SDS011;3942;51.518;6.912;2023-11-21T07:08:26;53.08;;;20.00;;
7795;SDS011;3942;51.518;6.912;2023-11-21T07:13:30;53.83;;;19.50;;
7795;SDS011;3942;51.518;6.912;2023-11-21T07:18:32;57.58;;;22.52;;
7795;SDS011;3942;51.518;6.912;2023-11-21T07:23:34;58.08;;;22.65;;
7795;SDS011;3942;51.518;6.912;2023-11-21T07:28:38;65.60;;;22.23;;
7795;SDS011;3942;51.518;6.912;2023-11-21T07:33:40;59.80;;;22.48;;
7795;SDS011;3942;51.518;6.912;2023-11-21T07:38:42;67.50;;;26.75;;
7795;SDS011;3942;51.518;6.912;2023-11-21T07:43:45;82.53;;;30.95;;
7795;SDS011;3942;51.518;6.912;2023-11-21T07:48:48;85.05;;;30.40;;
7795;SDS011;3942;51.518;6.912;2023-11-21T07:53:50;89.32;;;31.55;;
7795;SDS011;3942;51.518;6.912;2023-11-21T07:58:53;92.13;;;28.73;;
7795;SDS011;3942;51.518;6.912;2023-11-21T08:03:55;90.03;;;29.85;;
7795;SDS011;3942;51.518;6.912;2023-11-21T08:09:01;87.35;;;29.67;;
7795;SDS011;3942;51.518;6.912;2023-11-21T08:14:05;107.13;;;33.58;;
7795;SDS011;3942;51.518;6.912;2023-11-21T08:19:07;98.90;;;30.67;;
7795;SDS011;3942;51.518;6.912;2023-11-21T08:24:09;108.18;;;33.92;;
7795;SDS011;3942;51.518;6.912;2023-11-21T08:29:13;108.75;;;36.03;;
7795;SDS011;3942;51.518;6.912;2023-11-21T08:34:15;120.50;;;38.05;;
7795;SDS011;3942;51.518;6.912;2023-11-21T08:39:17;139.82;;;43.70;;
7795;SDS011;3942;51.518;6.912;2023-11-21T08:44:21;135.68;;;40.80;;
7795;SDS011;3942;51.518;6.912;2023-11-21T08:49:23;127.55;;;38.15;;
7795;SDS011;3942;51.518;6.912;2023-11-21T08:54:26;129.95;;;38.00;;
7795;SDS011;3942;51.518;6.912;2023-11-21T08:59:29;144.90;;;40.42;;
7795;SDS011;3942;51.518;6.912;2023-11-21T09:04:31;117.60;;;38.08;;
7795;SDS011;3942;51.518;6.912;2023-11-21T09:09:33;113.35;;;34.25;;
7795;SDS011;3942;51.518;6.912;2023-11-21T09:14:37;108.47;;;33.30;;
7795;SDS011;3942;51.518;6.912;2023-11-21T09:19:39;109.78;;;35.08;;
7795;SDS011;3942;51.518;6.912;2023-11-21T09:24:41;94.40;;;30.23;;
7795;SDS011;3942;51.518;6.912;2023-11-21T09:29:45;102.00;;;37.33;;
7795;SDS011;3942;51.518;6.912;2023-11-21T09:34:47;66.32;;;28.83;;
7795;SDS011;3942;51.518;6.912;2023-11-21T09:39:50;68.43;;;25.45;;
7795;SDS011;3942;51.518;6.912;2023-11-21T09:44:56;94.53;;;42.08;;
7795;SDS011;3942;51.518;6.912;2023-11-21T09:50:05;60.30;;;23.50;;
7795;SDS011;3942;51.518;6.912;2023-11-21T09:55:08;49.28;;;21.85;;
7795;SDS011;3942;51.518;6.912;2023-11-21T10:00:15;45.90;;;18.77;;
7795;SDS011;3942;51.518;6.912;2023-11-21T10:05:18;53.78;;;23.85;;
7795;SDS011;3942;51.518;6.912;2023-11-21T10:10:22;47.58;;;22.40;;
7795;SDS011;3942;51.518;6.912;2023-11-21T10:15:25;45.38;;;18.52;;
7795;SDS011;3942;51.518;6.912;2023-11-21T10:20:27;46.90;;;18.98;;
7795;SDS011;3942;51.518;6.912;2023-11-21T10:25:30;41.80;;;18.38;;
7795;SDS011;3942;51.518;6.912;2023-11-21T10:30:33;38.20;;;16.75;;
7795;SDS011;3942;51.518;6.912;2023-11-21T10:35:42;37.58;;;15.93;;
7795;SDS011;3942;51.518;6.912;2023-11-21T10:40:46;43.08;;;18.48;;
7795;SDS011;3942;51.518;6.912;2023-11-21T10:45:50;39.38;;;17.80;;
7795;SDS011;3942;51.518;6.912;2023-11-21T10:50:52;41.47;;;18.20;;
7795;SDS011;3942;51.518;6.912;2023-11-21T10:56:01;45.22;;;18.75;;
7795;SDS011;3942;51.518;6.912;2023-11-21T11:01:06;45.35;;;18.30;;
7795;SDS011;3942;51.518;6.912;2023-11-21T11:06:11;46.27;;;18.17;;
7795;SDS011;3942;51.518;6.912;2023-11-21T11:11:14;46.63;;;17.98;;
7795;SDS011;3942;51.518;6.912;2023-11-21T11:16:19;42.53;;;18.30;;
7795;SDS011;3942;51.518;6.912;2023-11-21T11:21:25;42.40;;;18.02;;
7795;SDS011;3942;51.518;6.912;2023-11-21T11:26:31;46.00;;;18.40;;
7795;SDS011;3942;51.518;6.912;2023-11-21T11:31:53;40.42;;;18.40;;
7795;SDS011;3942;51.518;6.912;2023-11-21T11:37:05;38.33;;;16.83;;
7795;SDS011;3942;51.518;6.912;2023-11-21T11:42:12;54.03;;;24.40;;
7795;SDS011;3942;51.518;6.912;2023-11-21T11:47:16;46.08;;;18.35;;
7795;SDS011;3942;51.518;6.912;2023-11-21T11:52:34;77.55;;;33.95;;
7795;SDS011;3942;51.518;6.912;2023-11-21T11:57:37;142.95;;;64.32;;
7795;SDS011;3942;51.518;6.912;2023-11-21T12:02:41;74.78;;;35.85;;
7795;SDS011;3942;51.518;6.912;2023-11-21T12:07:47;87.53;;;37.88;;
7795;SDS011;3942;51.518;6.912;2023-11-21T12:12:50;60.75;;;26.42;;
7795;SDS011;3942;51.518;6.912;2023-11-21T12:17:53;59.40;;;23.23;;
7795;SDS011;3942;51.518;6.912;2023-11-21T12:22:56;49.92;;;18.08;;
7795;SDS011;3942;51.518;6.912;2023-11-21T12:27:59;31.90;;;14.65;;
7795;SDS011;3942;51.518;6.912;2023-11-21T12:33:04;34.30;;;14.05;;
7795;SDS011;3942;51.518;6.912;2023-11-21T12:38:08;33.97;;;15.43;;
7795;SDS011;3942;51.518;6.912;2023-11-21T12:43:10;39.55;;;17.15;;
7795;SDS011;3942;51.518;6.912;2023-11-21T12:48:14;41.45;;;16.42;;
7795;SDS011;3942;51.518;6.912;2023-11-21T12:53:22;30.15;;;14.02;;
7795;SDS011;3942;51.518;6.912;2023-11-21T12:58:25;30.95;;;14.43;;
7795;SDS011;3942;51.518;6.912;2023-11-21T13:03:28;37.90;;;16.95;;
7795;SDS011;3942;51.518;6.912;2023-11-21T13:08:31;30.48;;;11.60;;
7795;SDS011;3942;51.518;6.912;2023-11-21T13:13:33;21.80;;;10.50;;
7795;SDS011;3942;51.518;6.912;2023-11-21T13:18:36;20.48;;;10.68;;
7795;SDS011;3942;51.518;6.912;2023-11-21T13:23:40;20.52;;;10.95;;
7795;SDS011;3942;51.518;6.912;2023-11-21T13:28:43;28.02;;;10.80;;
7795;SDS011;3942;51.518;6.912;2023-11-21T13:33:48;24.52;;;11.13;;
7795;SDS011;3942;51.518;6.912;2023-11-21T13:38:55;26.80;;;13.00;;
7795;SDS011;3942;51.518;6.912;2023-11-21T13:43:58;26.42;;;11.55;;
7795;SDS011;3942;51.518;6.912;2023-11-21T13:49:15;21.80;;;11.63;;
7795;SDS011;3942;51.518;6.912;2023-11-21T13:54:18;23.30;;;11.60;;
7795;SDS011;3942;51.518;6.912;2023-11-21T13:59:21;23.17;;;11.27;;
7795;SDS011;3942;51.518;6.912;2023-11-21T14:04:27;30.05;;;11.55;;
7795;SDS011;3942;51.518;6.912;2023-11-21T14:09:47;25.38;;;12.10;;
7795;SDS011;3942;51.518;6.912;2023-11-21T14:14:49;25.42;;;11.93;;
7795;SDS011;3942;51.518;6.912;2023-11-21T14:19:53;27.10;;;12.77;;
7795;SDS011;3942;51.518;6.912;2023-11-21T14:24:56;24.63;;;11.02;;
7795;SDS011;3942;51.518;6.912;2023-11-21T14:30:00;24.98;;;11.88;;
7795;SDS011;3942;51.518;6.912;2023-11-21T14:35:03;23.05;;;10.65;;
7795;SDS011;3942;51.518;6.912;2023-11-21T14:40:06;25.88;;;9.70;;
7795;SDS011;3942;51.518;6.912;2023-11-21T14:45:09;20.58;;;9.43;;
7795;SDS011;3942;51.518;6.912;2023-11-21T14:50:14;20.17;;;8.90;;
7795;SDS011;3942;51.518;6.912;2023-11-21T14:55:34;15.38;;;7.47;;
7795;SDS011;3942;51.518;6.912;2023-11-21T15:00:53;22.33;;;9.73;;
7795;SDS011;3942;51.518;6.912;2023-11-21T15:05:59;23.85;;;9.95;;
7795;SDS011;3942;51.518;6.912;2023-11-21T15:11:18;18.00;;;8.50;;
7795;SDS011;3942;51.518;6.912;2023-11-21T15:16:25;17.13;;;8.23;;
7795;SDS011;3942;51.518;6.912;2023-11-21T15:21:28;17.15;;;8.27;;
7795;SDS011;3942;51.518;6.912;2023-11-21T15:26:32;15.93;;;7.95;;
7795;SDS011;3942;51.518;6.912;2023-11-21T15:31:34;21.17;;;8.90;;
7795;SDS011;3942;51.518;6.912;2023-11-21T15:36:38;17.33;;;10.05;;
7795;SDS011;3942;51.518;6.912;2023-11-21T15:41:40;19.35;;;9.40;;
7795;SDS011;3942;51.518;6.912;2023-11-21T15:46:42;16.75;;;8.25;;
7795;SDS011;3942;51.518;6.912;2023-11-21T15:51:46;19.55;;;9.60;;
7795;SDS011;3942;51.518;6.912;2023-11-21T15:56:53;21.90;;;11.57;;
7795;SDS011;3942;51.518;6.912;2023-11-21T16:01:57;21.40;;;10.18;;
7795;SDS011;3942;51.518;6.912;2023-11-21T16:07:00;17.60;;;9.35;;
7795;SDS011;3942;51.518;6.912;2023-11-21T16:12:06;20.88;;;11.25;;
7795;SDS011;3942;51.518;6.912;2023-11-21T16:17:08;21.77;;;11.30;;
7795;SDS011;3942;51.518;6.912;2023-11-21T16:22:12;17.80;;;10.70;;
7795;SDS011;3942;51.518;6.912;2023-11-21T16:27:14;21.50;;;10.63;;
7795;SDS011;3942;51.518;6.912;2023-11-21T16:32:17;19.92;;;10.90;;
7795;SDS011;3942;51.518;6.912;2023-11-21T16:37:21;19.95;;;9.98;;
7795;SDS011;3942;51.518;6.912;2023-11-21T16:42:23;20.27;;;10.18;;
7795;SDS011;3942;51.518;6.912;2023-11-21T16:47:27;20.52;;;10.93;;
7795;SDS011;3942;51.518;6.912;2023-11-21T16:52:31;14.93;;;8.80;;
7795;SDS011;3942;51.518;6.912;2023-11-21T16:57:33;13.25;;;8.43;;
7795;SDS011;3942;51.518;6.912;2023-11-21T17:02:35;19.55;;;10.07;;
7795;SDS011;3942;51.518;6.912;2023-11-21T17:07:39;15.75;;;9.10;;
7795;SDS011;3942;51.518;6.912;2023-11-21T17:12:41;16.83;;;8.90;;
7795;SDS011;3942;51.518;6.912;2023-11-21T17:17:43;14.52;;;7.43;;
7795;SDS011;3942;51.518;6.912;2023-11-21T17:22:46;14.50;;;7.72;;
7795;SDS011;3942;51.518;6.912;2023-11-21T17:27:49;9.85;;;6.07;;
7795;SDS011;3942;51.518;6.912;2023-11-21T17:32:52;23.02;;;10.85;;
7795;SDS011;3942;51.518;6.912;2023-11-21T17:37:56;11.90;;;7.20;;
7795;SDS011;3942;51.518;6.912;2023-11-21T17:42:59;11.95;;;6.38;;
7795;SDS011;3942;51.518;6.912;2023-11-21T17:48:01;13.45;;;8.43;;
7795;SDS011;3942;51.518;6.912;2023-11-21T17:53:04;12.93;;;7.60;;
7795;SDS011;3942;51.518;6.912;2023-11-21T17:58:06;12.48;;;6.53;;
7795;SDS011;3942;51.518;6.912;2023-11-21T18:03:09;11.13;;;6.53;;
7795;SDS011;3942;51.518;6.912;2023-11-21T18:08:12;12.85;;;6.10;;
7795;SDS011;3942;51.518;6.912;2023-11-21T18:13:15;11.25;;;6.55;;
7795;SDS011;3942;51.518;6.912;2023-11-21T18:18:17;8.23;;;4.70;;
7795;SDS011;3942;51.518;6.912;2023-11-21T18:23:21;11.13;;;7.05;;
7795;SDS011;3942;51.518;6.912;2023-11-21T18:28:23;12.95;;;7.78;;
7795;SDS011;3942;51.518;6.912;2023-11-21T18:33:25;13.85;;;7.45;;
7795;SDS011;3942;51.518;6.912;2023-11-21T18:38:30;14.23;;;7.78;;
7795;SDS011;3942;51.518;6.912;2023-11-21T18:43:32;13.25;;;7.63;;
7795;SDS011;3942;51.518;6.912;2023-11-21T18:48:34;13.60;;;8.23;;
7795;SDS011;3942;51.518;6.912;2023-11-21T18:53:38;13.38;;;8.40;;
7795;SDS011;3942;51.518;6.912;2023-11-21T18:58:40;15.52;;;8.98;;
7795;SDS011;3942;51.518;6.912;2023-11-21T19:03:42;13.43;;;7.70;;
7795;SDS011;3942;51.518;6.912;2023-11-21T19:08:46;14.73;;;8.05;;
7795;SDS011;3942;51.518;6.912;2023-11-21T19:13:48;15.95;;;7.97;;
7795;SDS011;3942;51.518;6.912;2023-11-21T19:18:50;16.98;;;8.55;;
7795;SDS011;3942;51.518;6.912;2023-11-21T19:23:54;13.45;;;7.78;;
7795;SDS011;3942;51.518;6.912;2023-11-21T19:28:56;17.17;;;8.85;;
7795;SDS011;3942;51.518;6.912;2023-11-21T19:33:59;14.43;;;8.23;;
7795;SDS011;3942;51.518;6.912;2023-11-21T19:39:02;12.88;;;8.25;;
7795;SDS011;3942;51.518;6.912;2023-11-21T19:44:05;16.23;;;8.40;;
7795;SDS011;3942;51.518;6.912;2023-11-21T19:49:07;16.80;;;9.57;;
7795;SDS011;3942;51.518;6.912;2023-11-21T19:54:11;15.32;;;9.00;;
7795;SDS011;3942;51.518;6.912;2023-11-21T19:59:13;16.73;;;9.40;;
7795;SDS011;3942;51.518;6.912;2023-11-21T20:04:16;18.25;;;9.68;;
7795;SDS011;3942;51.518;6.912;2023-11-21T20:09:19;18.33;;;10.65;;
7795;SDS011;3942;51.518;6.912;2023-11-21T20:14:22;17.00;;;10.50;;
7795;SDS011;3942;51.518;6.912;2023-11-21T20:19:24;17.60;;;10.23;;
7795;SDS011;3942;51.518;6.912;2023-11-21T20:24:28;18.00;;;10.73;;
7795;SDS011;3942;51.518;6.912;2023-11-21T20:29:30;18.55;;;10.27;;
7795;SDS011;3942;51.518;6.912;2023-11-21T20:34:33;18.88;;;10.90;;
7795;SDS011;3942;51.518;6.912;2023-11-21T20:39:38;19.73;;;10.13;;
7795;SDS011;3942;51.518;6.912;2023-11-21T20:44:40;14.20;;;8.48;;
7795;SDS011;3942;51.518;6.912;2023-11-21T20:49:42;17.45;;;9.80;;
7795;SDS011;3942;51.518;6.912;2023-11-21T20:54:45;18.15;;;9.88;;
7795;SDS011;3942;51.518;6.912;2023-11-21T20:59:48;27.90;;;11.73;;
7795;SDS011;3942;51.518;6.912;2023-11-21T21:04:50;19.35;;;11.07;;
7795;SDS011;3942;51.518;6.912;2023-11-21T21:09:53;23.05;;;11.98;;
7795;SDS011;3942;51.518;6.912;2023-11-21T21:14:56;19.50;;;11.75;;
7795;SDS011;3942;51.518;6.912;2023-11-21T21:19:58;21.63;;;12.48;;
7795;SDS011;3942;51.518;6.912;2023-11-21T21:25:02;16.10;;;9.77;;
7795;SDS011;3942;51.518;6.912;2023-11-21T21:30:04;15.00;;;8.93;;
7795;SDS011;3942;51.518;6.912;2023-11-21T21:35:07;17.13;;;8.88;;
7795;SDS011;3942;51.518;6.912;2023-11-21T21:40:11;16.58;;;9.05;;
7795;SDS011;3942;51.518;6.912;2023-11-21T21:45:13;15.65;;;8.65;;
7795;SDS011;3942;51.518;6.912;2023-11-21T21:50:15;15.05;;;9.15;;
7795;SDS011;3942;51.518;6.912;2023-11-21T21:55:20;13.68;;;8.68;;
7795;SDS011;3942;51.518;6.912;2023-11-21T22:00:22;14.23;;;8.63;;
7795;SDS011;3942;51.518;6.912;2023-11-21T22:05:25;17.85;;;10.43;;
7795;SDS011;3942;51.518;6.912;2023-11-21T22:10:28;17.77;;;10.52;;
7795;SDS011;3942;51.518;6.912;2023-11-21T22:15:32;19.17;;;10.52;;
7795;SDS011;3942;51.518;6.912;2023-11-21T22:20:34;19.20;;;11.07;;
7795;SDS011;3942;51.518;6.912;2023-11-21T22:25:38;20.65;;;11.23;;
7795;SDS011;3942;51.518;6.912;2023-11-21T22:30:40;21.13;;;10.93;;
7795;SDS011;3942;51.518;6.912;2023-11-21T22:35:43;30.25;;;14.82;;
7795;SDS011;3942;51.518;6.912;2023-11-21T22:40:46;22.25;;;13.27;;
7795;SDS011;3942;51.518;6.912;2023-11-21T22:45:48;24.02;;;12.73;;
7795;SDS011;3942;51.518;6.912;2023-11-21T22:50:51;21.50;;;11.43;;
7795;SDS011;3942;51.518;6.912;2023-11-21T22:55:54;22.98;;;13.07;;
7795;SDS011;3942;51.518;6.912;2023-11-21T23:00:56;21.67;;;11.68;;
7795;SDS011;3942;51.518;6.912;2023-11-21T23:05:58;22.42;;;12.52;;
7795;SDS011;3942;51.518;6.912;2023-11-21T23:11:02;24.17;;;13.27;;
7795;SDS011;3942;51.518;6.912;2023-11-21T23:16:05;21.83;;;11.90;;
7795;SDS011;3942;51.518;6.912;2023-11-21T23:21:07;19.85;;;11.65;;
7795;SDS011;3942;51.518;6.912;2023-11-21T23:26:14;24.67;;;11.98;;
7795;SDS011;3942;51.518;6.912;2023-11-21T23:31:18;18.40;;;10.75;;
7795;SDS011;3942;51.518;6.912;2023-11-21T23:36:21;22.88;;;11.98;;
7795;SDS011;3942;51.518;6.912;2023-11-21T23:41:26;20.02;;;11.13;;
7795;SDS011;3942;51.518;6.912;2023-11-21T23:46:28;19.50;;;11.70;;
7795;SDS011;3942;51.518;6.912;2023-11-21T23:51:30;21.83;;;11.27;;
7795;SDS011;3942;51.518;6.912;2023-11-21T23:56:33;20.80;;;11.32;;
